MSC Maya — 3FNF8 — position and weather

sailwx.info

Track history (hours):
 
Tides and Currents Weather Stations Pressure Air Temp Water Temp Dewpoint Dewpoint Depression Visibility Wind Speed Wind Dir Waves Ship Positions

MSC Maya

Last reported at 2016-Aug-22 09:20 UTC. Time now 2016-Aug-26 23:25 UTC.
Position N 01°15' E 104°10'.

Length 242 m; draft 8.2 m.

Type: Cargo ship. MMSI: 351384000.

Date/timePositionNaut miles runAvg speedWind from/ knotsBaromVisibWave heightAir tempDewpointWater temp
2016-Aug-22 09:20N 01°15' E 104°10'1215.3
2016-Aug-22 08:33N 01°14' E 103°59'1211.5
2016-Aug-22 07:33N 01°14' E 103°47'3 1.6
2016-Aug-22 05:26N 01°17' E 103°45'0 0.0
2016-Aug-22 04:29N 01°17' E 103°45'0 0.0
2016-Aug-22 03:18N 01°17' E 103°45'0 0.0
2016-Aug-22 02:33N 01°17' E 103°45'0 0.0
2016-Aug-22 01:32N 01°17' E 103°45'0 0.0
2016-Aug-22 00:33N 01°17' E 103°45'0 0.0
2016-Aug-21 23:33N 01°17' E 103°45'0 0.0
2016-Aug-21 22:33N 01°17' E 103°45'0 0.0
2016-Aug-21 21:33N 01°17' E 103°45'0 0.0
2016-Aug-21 20:33N 01°17' E 103°45'0 0.0
2016-Aug-21 19:31N 01°17' E 103°45'0 0.0
2016-Aug-21 18:33N 01°17' E 103°45'0 0.0
2016-Aug-21 17:11N 01°17' E 103°45'0 0.0
2016-Aug-21 16:23N 01°17' E 103°45'0 0.0
2016-Aug-21 15:32N 01°17' E 103°45'0 0.4
2016-Aug-21 14:33N 01°17' E 103°45'3 2.8
2016-Aug-21 13:33N 01°15' E 103°47'2 1.0
2016-Aug-21 11:33N 01°14' E 103°49'0 0.1
2016-Aug-21 10:33N 01°14' E 103°49'0 0.0
2016-Aug-21 08:27N 01°14' E 103°49'0 0.0
2016-Aug-21 06:30N 01°14' E 103°49'0 0.1
2016-Aug-21 05:27N 01°14' E 103°49'0 0.0
2016-Aug-21 04:33N 01°14' E 103°49'0 0.1
2016-Aug-21 03:33N 01°14' E 103°49'0 0.1
2016-Aug-21 02:33N 01°14' E 103°49'0 0.2
2016-Aug-21 01:27N 01°14' E 103°49'4 1.9
2016-Aug-20 23:21N 01°15' E 103°45'6 0.3
2016-Aug-20 00:33N 01°08' E 103°44'1111.3
2016-Aug-19 23:33N 01°13' E 103°54'1110.9
2016-Aug-19 22:33N 01°16' E 104°05'  
2016-Aug-15 00:25N 01°16' E 104°13'1213.2
2016-Aug-14 23:32N 01°15' E 104°01'1212.1
2016-Aug-14 22:33N 01°11' E 103°50'7 1.1
2016-Aug-14 16:33N 01°16' E 103°46'0 0.0
2016-Aug-14 15:23N 01°16' E 103°46'0 0.0
2016-Aug-14 14:20N 01°16' E 103°46'0 0.0
2016-Aug-14 13:30N 01°16' E 103°46'0 0.0
2016-Aug-14 12:33N 01°16' E 103°46'0 0.0
2016-Aug-14 11:21N 01°16' E 103°46'0 0.0
2016-Aug-14 10:33N 01°16' E 103°46'0 0.0
2016-Aug-14 09:34N 01°16' E 103°46'0 0.0
2016-Aug-14 08:31N 01°16' E 103°46'0 0.0
2016-Aug-14 07:33N 01°16' E 103°46'0 0.0
2016-Aug-14 06:31N 01°16' E 103°46'0 0.0
2016-Aug-14 04:30N 01°16' E 103°46'0 0.0
2016-Aug-14 03:33N 01°16' E 103°46'1 1.1
2016-Aug-14 02:33N 01°15' E 103°46'4 3.3
2016-Aug-14 01:22N 01°13' E 103°49'0 0.1
2016-Aug-14 00:28N 01°13' E 103°49'0 0.0
2016-Aug-13 23:31N 01°13' E 103°49'0 0.1
2016-Aug-13 22:28N 01°13' E 103°49'0 0.1
2016-Aug-13 21:28N 01°13' E 103°49'0 0.0
2016-Aug-13 20:22N 01°13' E 103°49'0 0.1
2016-Aug-13 19:31N 01°13' E 103°49'0 0.0
2016-Aug-13 18:28N 01°13' E 103°49'0 0.0
2016-Aug-13 17:31N 01°13' E 103°49'0 0.0
2016-Aug-13 15:28N 01°13' E 103°49'5 5.3
2016-Aug-13 14:33N 01°15' E 103°45'9 9.1
2016-Aug-13 13:33N 01°12' E 103°36'2 0.1
2016-Aug-12 20:31N 01°13' E 103°34'1010.1
2016-Aug-12 19:33N 01°09' E 103°43'1010.3
2016-Aug-12 18:34N 01°13' E 103°53'1110.6
2016-Aug-12 17:33N 01°16' E 104°03'  
Track history (hours):
 
Tides and Currents Weather Stations Pressure Air Temp Water Temp Dewpoint Dewpoint Depression Visibility Wind Speed Wind Dir Waves Ship Positions

MSC Maya

Last reported at 2016-Aug-22 09:20 UTC. Time now 2016-Aug-26 23:25 UTC.
Position N 01°15' E 104°10'.

Length 242 m; draft 8.2 m.

Type: Cargo ship. MMSI: 351384000.

Date/timePositionNaut miles runAvg speedWind from/ knotsBaromVisibWave heightAir tempDewpointWater temp
2016-Aug-22 09:20N 01°15' E 104°10'1215.3
2016-Aug-22 08:33N 01°14' E 103°59'1211.5
2016-Aug-22 07:33N 01°14' E 103°47'3 1.6
2016-Aug-22 05:26N 01°17' E 103°45'0 0.0
2016-Aug-22 04:29N 01°17' E 103°45'0 0.0
2016-Aug-22 03:18N 01°17' E 103°45'0 0.0
2016-Aug-22 02:33N 01°17' E 103°45'0 0.0
2016-Aug-22 01:32N 01°17' E 103°45'0 0.0
2016-Aug-22 00:33N 01°17' E 103°45'0 0.0
2016-Aug-21 23:33N 01°17' E 103°45'0 0.0
2016-Aug-21 22:33N 01°17' E 103°45'0 0.0
2016-Aug-21 21:33N 01°17' E 103°45'0 0.0
2016-Aug-21 20:33N 01°17' E 103°45'0 0.0
2016-Aug-21 19:31N 01°17' E 103°45'0 0.0
2016-Aug-21 18:33N 01°17' E 103°45'0 0.0
2016-Aug-21 17:11N 01°17' E 103°45'0 0.0
2016-Aug-21 16:23N 01°17' E 103°45'0 0.0
2016-Aug-21 15:32N 01°17' E 103°45'0 0.4
2016-Aug-21 14:33N 01°17' E 103°45'3 2.8
2016-Aug-21 13:33N 01°15' E 103°47'2 1.0
2016-Aug-21 11:33N 01°14' E 103°49'0 0.1
2016-Aug-21 10:33N 01°14' E 103°49'0 0.0
2016-Aug-21 08:27N 01°14' E 103°49'0 0.0
2016-Aug-21 06:30N 01°14' E 103°49'0 0.1
2016-Aug-21 05:27N 01°14' E 103°49'0 0.0
2016-Aug-21 04:33N 01°14' E 103°49'0 0.1
2016-Aug-21 03:33N 01°14' E 103°49'0 0.1
2016-Aug-21 02:33N 01°14' E 103°49'0 0.2
2016-Aug-21 01:27N 01°14' E 103°49'4 1.9
2016-Aug-20 23:21N 01°15' E 103°45'6 0.3
2016-Aug-20 00:33N 01°08' E 103°44'1111.3
2016-Aug-19 23:33N 01°13' E 103°54'1110.9
2016-Aug-19 22:33N 01°16' E 104°05'  
2016-Aug-15 00:25N 01°16' E 104°13'1213.2
2016-Aug-14 23:32N 01°15' E 104°01'1212.1
2016-Aug-14 22:33N 01°11' E 103°50'7 1.1
2016-Aug-14 16:33N 01°16' E 103°46'0 0.0
2016-Aug-14 15:23N 01°16' E 103°46'0 0.0
2016-Aug-14 14:20N 01°16' E 103°46'0 0.0
2016-Aug-14 13:30N 01°16' E 103°46'0 0.0
2016-Aug-14 12:33N 01°16' E 103°46'0 0.0
2016-Aug-14 11:21N 01°16' E 103°46'0 0.0
2016-Aug-14 10:33N 01°16' E 103°46'0 0.0
2016-Aug-14 09:34N 01°16' E 103°46'0 0.0
2016-Aug-14 08:31N 01°16' E 103°46'0 0.0
2016-Aug-14 07:33N 01°16' E 103°46'0 0.0
2016-Aug-14 06:31N 01°16' E 103°46'0 0.0
2016-Aug-14 04:30N 01°16' E 103°46'0 0.0
2016-Aug-14 03:33N 01°16' E 103°46'1 1.1
2016-Aug-14 02:33N 01°15' E 103°46'4 3.3
2016-Aug-14 01:22N 01°13' E 103°49'0 0.1
2016-Aug-14 00:28N 01°13' E 103°49'0 0.0
2016-Aug-13 23:31N 01°13' E 103°49'0 0.1
2016-Aug-13 22:28N 01°13' E 103°49'0 0.1
2016-Aug-13 21:28N 01°13' E 103°49'0 0.0
2016-Aug-13 20:22N 01°13' E 103°49'0 0.1
2016-Aug-13 19:31N 01°13' E 103°49'0 0.0
2016-Aug-13 18:28N 01°13' E 103°49'0 0.0
2016-Aug-13 17:31N 01°13' E 103°49'0 0.0
2016-Aug-13 15:28N 01°13' E 103°49'5 5.3
2016-Aug-13 14:33N 01°15' E 103°45'9 9.1
2016-Aug-13 13:33N 01°12' E 103°36'2 0.1
2016-Aug-12 20:31N 01°13' E 103°34'1010.1
2016-Aug-12 19:33N 01°09' E 103°43'1010.3
2016-Aug-12 18:34N 01°13' E 103°53'1110.6
2016-Aug-12 17:33N 01°16' E 104°03'  

Dump ship's entire track history